Time;durP1;ratioP1;P1;durP2;ratioP2;P2;SDS_P1;SDS_P2;PMS_P1;PMS_P2;Temp;Humidity;BMP_temperature;BMP_pressure;BME280_temperature;BME280_humidity;BME280_pressure;Samples;Min_cycle;Max_cycle;Signal;HPM_P1;HPM_P2
2023/04/03 00:00:51;;;;;;;4.25;2.75;;;;;;;9.76;48.70;94349.59;5027157;28;20584;-78
2023/04/03 00:03:18;;;;;;;3.80;2.17;;;;;;;9.73;48.76;94358.69;5026824;28;20559;-77
2023/04/03 00:05:43;;;;;;;3.83;2.00;;;;;;;9.54;48.80;94357.78;5027428;28;20503;-77
2023/04/03 00:08:09;;;;;;;6.47;3.28;;;;;;;9.39;49.52;94345.75;5028070;28;20100;-77
2023/04/03 00:10:36;;;;;;;7.53;4.03;;;;;;;9.34;49.54;94346.31;5032251;28;20059;-78
2023/04/03 00:13:02;;;;;;;5.75;3.42;;;;;;;9.34;49.80;94346.31;5025907;28;20022;-77
2023/04/03 00:15:27;;;;;;;4.65;3.13;;;;;;;9.35;49.47;94336.91;5027580;28;20041;-77
2023/04/03 00:17:53;;;;;;;7.35;3.03;;;;;;;9.34;50.00;94327.09;5025272;28;20032;-77
2023/04/03 00:20:18;;;;;;;5.28;2.75;;;;;;;9.34;49.76;94331.84;5026598;28;20040;-76
2023/04/03 00:22:43;;;;;;;7.07;2.95;;;;;;;9.31;49.99;94328.78;5026992;28;20021;-77
2023/04/03 00:25:09;;;;;;;6.35;3.40;;;;;;;9.30;49.89;94331.97;5027827;28;20101;-76
2023/04/03 00:27:37;;;;;;;5.85;2.97;;;;;;;9.32;50.16;94337.78;5027523;28;20044;-78
2023/04/03 00:30:03;;;;;;;5.38;2.92;;;;;;;9.27;50.25;94332.84;5025742;28;20172;-77
2023/04/03 00:32:28;;;;;;;7.05;3.20;;;;;;;9.25;50.24;94344.25;5027479;28;20110;-77
2023/04/03 00:34:54;;;;;;;6.82;3.47;;;;;;;9.19;50.38;94329.56;5026565;28;20089;-77
2023/04/03 00:37:20;;;;;;;7.20;3.10;;;;;;;9.15;50.32;94339.88;5027835;28;20036;-77
2023/04/03 00:39:45;;;;;;;8.25;3.28;;;;;;;9.12;50.46;94342.75;5026508;28;20029;-76
2023/04/03 00:42:10;;;;;;;5.97;2.88;;;;;;;9.09;50.57;94343.63;5027634;28;20032;-77
2023/04/03 00:44:36;;;;;;;4.68;2.85;;;;;;;9.06;50.76;94339.81;5026637;28;20048;-77
2023/04/03 00:47:03;;;;;;;10.73;3.40;;;;;;;9.03;50.80;94340.69;5027327;28;20431;-77
2023/04/03 00:49:29;;;;;;;5.90;3.63;;;;;;;9.02;50.73;94344.63;5024964;28;20026;-79
2023/04/03 00:51:55;;;;;;;10.07;4.20;;;;;;;8.98;50.95;94342.00;5026503;28;20022;-77
2023/04/03 00:54:20;;;;;;;6.68;3.47;;;;;;;8.88;50.90;94343.09;5025892;28;20521;-79
2023/04/03 00:56:46;;;;;;;5.13;3.38;;;;;;;8.89;50.92;94341.91;5025902;28;20041;-76
2023/04/03 00:59:15;;;;;;;10.05;8.30;;;;;;;8.83;51.42;94351.09;5025523;28;20161;-77
2023/04/03 01:01:40;;;;;;;8.75;5.50;;;;;;;8.78;51.32;94345.00;5024808;28;20118;-77
2023/04/03 01:04:06;;;;;;;7.18;4.15;;;;;;;8.76;51.57;94344.66;5029701;28;20041;-77
2023/04/03 01:06:36;;;;;;;8.27;4.50;;;;;;;8.74;51.61;94343.56;5027437;28;20495;-76
2023/04/03 01:09:03;;;;;;;7.78;4.10;;;;;;;8.70;51.56;94351.88;5026725;28;20036;-77
2023/04/03 01:11:28;;;;;;;9.18;3.95;;;;;;;8.69;51.42;94353.09;5025799;28;20097;-77
2023/04/03 01:13:53;;;;;;;5.38;3.00;;;;;;;8.65;51.65;94348.91;5026246;28;20056;-76
2023/04/03 01:16:19;;;;;;;5.70;3.20;;;;;;;8.63;51.40;94345.88;5027032;28;20574;-76
2023/04/03 01:18:45;;;;;;;7.13;3.60;;;;;;;8.62;51.92;94350.56;5024093;28;20025;-76
2023/04/03 01:21:30;;;;;;;6.40;3.67;;;;;;;8.60;52.13;94353.00;5025696;28;20026;-75
2023/04/03 01:24:14;;;;;;;6.32;3.53;;;;;;;8.59;51.99;94356.91;5026125;28;20079;-76
2023/04/03 01:26:40;;;;;;;8.50;3.60;;;;;;;8.56;52.04;94357.81;5025452;28;20030;-76
2023/04/03 01:29:05;;;;;;;7.80;3.83;;;;;;;8.52;52.15;94357.13;5025606;28;20034;-75
2023/04/03 01:31:46;;;;;;;10.95;4.53;;;;;;;8.53;52.08;94364.16;5023727;28;20033;-77
2023/04/03 01:34:11;;;;;;;11.10;4.55;;;;;;;8.49;52.38;94355.28;5026566;28;20036;-76
2023/04/03 01:36:37;;;;;;;6.97;4.65;;;;;;;8.46;52.17;94356.91;5024116;28;20029;-75
2023/04/03 01:39:02;;;;;;;9.18;3.97;;;;;;;8.43;52.30;94352.31;5025981;28;20523;-75
2023/04/03 01:41:28;;;;;;;7.10;3.92;;;;;;;8.43;52.24;94351.53;5025644;28;20034;-76
2023/04/03 01:43:54;;;;;;;7.53;3.30;;;;;;;8.41;52.31;94349.25;5025308;28;20025;-76
2023/04/03 01:46:20;;;;;;;9.23;3.45;;;;;;;8.36;52.47;94349.78;5026383;28;20032;-74
2023/04/03 01:48:46;;;;;;;10.07;3.67;;;;;;;8.35;52.50;94344.72;5023563;28;20021;-76
2023/04/03 01:51:11;;;;;;;6.53;3.55;;;;;;;8.34;52.59;94343.19;5024956;28;20450;-75
2023/04/03 01:53:36;;;;;;;8.38;3.60;;;;;;;8.34;52.79;94343.19;5024717;28;20049;-75
2023/04/03 01:56:02;;;;;;;5.90;3.30;;;;;;;8.32;52.79;94346.38;5026097;28;20507;-76
2023/04/03 01:58:28;;;;;;;5.40;3.25;;;;;;;8.29;52.58;94346.47;5008902;28;20029;-78
2023/04/03 02:00:54;;;;;;;5.57;3.50;;;;;;;8.27;52.85;94349.66;5029365;28;20484;-78
2023/04/03 02:03:20;;;;;;;8.95;3.60;;;;;;;8.28;52.75;94345.69;5026657;28;20492;-78
2023/04/03 02:05:45;;;;;;;6.03;3.58;;;;;;;8.31;52.89;94346.78;5025340;28;20054;-77
2023/04/03 02:08:11;;;;;;;7.15;2.90;;;;;;;8.30;53.09;94345.25;5026493;28;20033;-78
2023/04/03 02:10:36;;;;;;;6.15;3.30;;;;;;;8.26;53.05;94337.16;5024719;28;20065;-80
2023/04/03 02:13:02;;;;;;;6.85;3.20;;;;;;;8.29;52.97;94349.19;5026426;28;20473;-78
2023/04/03 02:15:27;;;;;;;5.93;3.28;;;;;;;8.29;53.31;94343.72;5023730;28;20507;-77
2023/04/03 02:17:52;;;;;;;7.43;3.70;;;;;;;8.23;53.11;94340.75;5025190;28;20029;-77
2023/04/03 02:20:18;;;;;;;4.45;2.88;;;;;;;8.22;53.23;94342.72;5025321;28;20108;-78
2023/04/03 02:22:44;;;;;;;6.93;3.38;;;;;;;8.15;53.29;94339.44;5024439;28;20033;-77
2023/04/03 02:25:10;;;;;;;3.47;2.60;;;;;;;8.10;53.33;94335.25;5025566;28;20387;-77
2023/04/03 02:27:36;;;;;;;6.40;3.20;;;;;;;8.09;53.18;94333.72;5024591;28;20018;-77
2023/04/03 02:30:02;;;;;;;5.78;3.28;;;;;;;8.05;53.28;94333.06;5024541;28;20017;-78
2023/04/03 02:32:27;;;;;;;5.63;3.28;;;;;;;7.98;53.69;94327.78;5022988;28;20053;-75
2023/04/03 02:34:53;;;;;;;5.95;3.35;;;;;;;7.91;53.63;94330.72;5025347;28;20112;-76
2023/04/03 02:37:18;;;;;;;5.72;3.08;;;;;;;7.71;54.23;94336.34;5024584;28;20025;-77
2023/04/03 02:39:44;;;;;;;4.38;2.92;;;;;;;7.61;54.08;94329.97;5023222;28;20113;-76
2023/04/03 02:42:10;;;;;;;4.57;3.40;;;;;;;7.59;54.34;94326.13;5023881;28;20196;-77
2023/04/03 02:44:35;;;;;;;4.30;2.63;;;;;;;7.46;54.60;94326.09;5024072;28;20528;-77
2023/04/03 02:47:01;;;;;;;4.65;2.88;;;;;;;7.52;54.45;94329.84;5025559;28;20032;-76
2023/04/03 02:49:26;;;;;;;4.35;2.35;;;;;;;7.56;54.53;94324.25;5022830;28;20027;-77
2023/04/03 02:51:52;;;;;;;3.22;2.05;;;;;;;7.47;54.90;94322.16;5023884;28;20021;-76
2023/04/03 02:54:17;;;;;;;5.20;2.25;;;;;;;7.53;54.76;94319.66;5029348;28;20041;-76
2023/04/03 02:56:43;;;;;;;4.05;2.45;;;;;;;7.55;54.71;94323.50;5024779;28;20048;-77
2023/04/03 02:59:08;;;;;;;6.32;2.92;;;;;;;7.57;54.80;94314.84;5024459;28;20034;-77
2023/04/03 03:01:34;;;;;;;4.72;2.92;;;;;;;7.58;54.21;94310.94;5024388;28;20124;-76
2023/04/03 03:04:00;;;;;;;4.30;2.85;;;;;;;7.57;54.47;94312.09;5007048;28;20037;-76
2023/04/03 03:06:25;;;;;;;4.85;2.88;;;;;;;7.58;54.66;94319.91;5022597;28;20037;-76
2023/04/03 03:08:51;;;;;;;5.50;3.25;;;;;;;7.57;54.38;94310.16;5024053;28;20026;-77
2023/04/03 03:11:16;;;;;;;4.32;2.80;;;;;;;7.57;54.61;94310.16;5023656;28;20112;-76
2023/04/03 03:13:42;;;;;;;7.75;3.42;;;;;;;7.56;54.33;94314.06;5031655;28;20032;-75
2023/04/03 03:16:07;;;;;;;3.90;2.83;;;;;;;7.56;54.81;94310.56;5030872;28;20034;-76
2023/04/03 03:18:34;;;;;;;4.38;2.75;;;;;;;7.49;55.25;94308.03;5030799;28;20041;-76
2023/04/03 03:21:00;;;;;;;6.85;2.90;;;;;;;7.43;55.47;94310.53;5029658;28;20028;-76
2023/04/03 03:23:27;;;;;;;5.75;3.47;;;;;;;7.45;55.04;94305.41;5029013;28;20171;-75
2023/04/03 03:25:57;;;;;;;5.60;3.25;;;;;;;7.46;54.99;94304.22;5029968;28;20480;-76
2023/04/03 03:28:23;;;;;;;7.32;3.60;;;;;;;7.46;54.71;94317.91;5030411;28;20147;-76
2023/04/03 03:30:48;;;;;;;5.07;2.78;;;;;;;7.48;54.68;94311.97;5031675;28;20104;-77
2023/04/03 03:33:14;;;;;;;6.35;3.00;;;;;;;7.46;54.74;94315.16;5028716;28;20034;-77
2023/04/03 03:35:40;;;;;;;5.47;3.00;;;;;;;7.43;54.85;94307.81;5030031;28;20105;-76
2023/04/03 03:38:05;;;;;;;5.97;2.92;;;;;;;7.43;55.09;94305.06;5030500;28;20071;-77
2023/04/03 03:40:30;;;;;;;5.15;3.42;;;;;;;7.43;54.79;94319.50;5029135;28;20039;-77
2023/04/03 03:42:56;;;;;;;6.82;3.72;;;;;;;7.42;55.03;94311.75;5031382;28;20025;-76
2023/04/03 03:45:21;;;;;;;9.27;3.72;;;;;;;7.43;54.96;94316.00;5030036;28;20504;-77
2023/04/03 03:47:47;;;;;;;10.55;4.78;;;;;;;7.42;55.05;94314.47;5032180;28;20029;-76
2023/04/03 03:50:12;;;;;;;7.85;5.70;;;;;;;7.44;55.16;94323.00;5033850;28;20338;-75
2023/04/03 03:52:38;;;;;;;9.38;5.20;;;;;;;7.42;55.27;94311.75;5031948;28;20089;-78
2023/04/03 03:55:04;;;;;;;13.18;5.30;;;;;;;7.39;55.38;94318.81;5030154;28;20025;-77
2023/04/03 03:57:30;;;;;;;7.38;5.53;;;;;;;7.37;55.35;94315.75;5012707;28;20114;-77
2023/04/03 03:59:55;;;;;;;11.68;7.43;;;;;;;7.39;55.42;94327.03;5030466;28;20135;-77
2023/04/03 04:02:21;;;;;;;13.23;7.18;;;;;;;7.39;55.49;94327.03;5030402;28;20018;-77
2023/04/03 04:04:46;;;;;;;12.35;7.43;;;;;;;7.40;55.47;94322.34;5030067;28;20501;-77
2023/04/03 04:07:12;;;;;;;14.48;9.20;;;;;;;7.39;55.63;94315.31;5029662;28;20594;-80
2023/04/03 04:09:37;;;;;;;12.30;7.50;;;;;;;7.36;55.80;94316.97;5031258;28;20036;-79
2023/04/03 04:12:03;;;;;;;12.40;7.82;;;;;;;7.36;56.02;94314.22;5028165;28;20183;-78
2023/04/03 04:14:28;;;;;;;10.40;7.70;;;;;;;7.35;55.90;94315.44;5029855;28;20033;-78
2023/04/03 04:16:53;;;;;;;19.00;9.00;;;;;;;7.37;55.87;94310.28;5030296;28;20025;-79
2023/04/03 04:19:19;;;;;;;20.90;10.32;;;;;;;7.36;55.65;94314.22;5028402;28;20044;-78
2023/04/03 04:21:45;;;;;;;14.30;9.95;;;;;;;7.36;55.83;94321.66;5030610;28;20159;-79
2023/04/03 04:24:10;;;;;;;16.55;10.65;;;;;;;7.38;55.72;94330.97;5024768;28;20026;-78
2023/04/03 04:26:36;;;;;;;17.55;10.80;;;;;;;7.34;55.36;94338.50;5028121;28;20045;-77
2023/04/03 04:29:01;;;;;;;18.08;10.07;;;;;;;7.38;55.54;94341.13;5026436;28;20029;-78
2023/04/03 04:31:27;;;;;;;16.48;10.18;;;;;;;7.33;55.34;94325.25;5027860;28;20419;-77
2023/04/03 04:33:53;;;;;;;21.63;10.55;;;;;;;7.38;55.27;94332.94;5026536;28;20155;-78
2023/04/03 04:36:18;;;;;;;18.88;9.98;;;;;;;7.40;55.34;94333.28;5027239;28;20060;-77
2023/04/03 04:38:44;;;;;;;14.25;9.20;;;;;;;7.41;55.39;94341.06;5027172;28;20033;-77
2023/04/03 04:41:10;;;;;;;28.02;9.48;;;;;;;7.43;55.49;94346.09;5026805;28;20025;-78
2023/04/03 04:43:35;;;;;;;15.23;8.27;;;;;;;7.45;55.33;94351.88;5030112;28;20333;-77
2023/04/03 04:46:09;;;;;;;19.23;10.10;;;;;;;7.42;55.37;94348.06;5027949;28;20029;-76
2023/04/03 04:48:35;;;;;;;16.30;7.65;;;;;;;7.44;55.19;94347.63;5028382;28;20033;-77
2023/04/03 04:51:01;;;;;;;16.38;8.68;;;;;;;7.47;55.50;94349.50;5025217;28;20430;-77
2023/04/03 04:53:26;;;;;;;18.60;9.10;;;;;;;7.49;55.71;94354.53;5009498;28;20056;-76
2023/04/03 04:55:52;;;;;;;15.57;8.63;;;;;;;7.49;55.45;94351.81;5026979;28;20030;-78
2023/04/03 04:58:17;;;;;;;17.05;8.30;;;;;;;7.58;55.46;94366.41;5026019;28;20049;-78
2023/04/03 05:00:43;;;;;;;22.92;10.93;;;;;;;7.61;55.43;94364.75;5027205;28;20030;-78
2023/04/03 05:03:08;;;;;;;18.45;10.85;;;;;;;7.64;55.47;94364.69;5025964;28;20038;-77
2023/04/03 05:05:35;;;;;;;26.02;11.73;;;;;;;7.67;55.31;94372.00;5025821;28;20148;-76
2023/04/03 05:08:01;;;;;;;19.13;12.18;;;;;;;7.71;55.21;94369.19;5024718;28;20334;-77
2023/04/03 05:10:26;;;;;;;21.65;12.40;;;;;;;7.73;55.31;94375.00;5025634;28;20036;-77
2023/04/03 05:12:51;;;;;;;26.85;12.07;;;;;;;7.71;54.94;94375.44;5025673;28;20030;-76
2023/04/03 05:15:17;;;;;;;21.77;9.52;;;;;;;7.76;54.25;94382.34;5026659;28;20033;-77
2023/04/03 05:17:42;;;;;;;15.07;7.97;;;;;;;7.75;53.82;94386.28;5026107;28;20349;-78
2023/04/03 05:20:09;;;;;;;12.65;7.93;;;;;;;7.79;53.72;94386.94;5025854;28;20033;-77
2023/04/03 05:22:35;;;;;;;12.07;6.95;;;;;;;7.79;53.65;94383.44;5008789;28;20092;-78
2023/04/03 05:25:00;;;;;;;14.85;8.35;;;;;;;7.80;53.52;94393.19;5025416;28;20061;-77
2023/04/03 05:27:27;;;;;;;21.23;9.07;;;;;;;7.83;53.45;94386.84;5026780;28;20034;-77
2023/04/03 05:29:53;;;;;;;19.02;7.88;;;;;;;7.82;53.49;94382.59;5023938;28;20467;-77
2023/04/03 05:32:19;;;;;;;14.90;8.05;;;;;;;7.85;53.56;94395.38;5026872;28;20192;-77
2023/04/03 05:34:44;;;;;;;16.25;8.18;;;;;;;7.86;53.55;94389.50;5024170;28;20404;-76
2023/04/03 05:37:10;;;;;;;21.42;8.43;;;;;;;7.89;53.82;94388.63;5030155;28;20014;-77
2023/04/03 05:39:35;;;;;;;22.75;10.15;;;;;;;7.92;53.77;94389.75;5028831;28;20575;-77
2023/04/03 05:42:01;;;;;;;14.93;8.07;;;;;;;7.97;53.80;94387.25;5007600;28;20057;-77
2023/04/03 05:44:26;;;;;;;16.10;8.25;;;;;;;8.02;53.84;94390.63;5025063;28;20079;-78
2023/04/03 05:46:52;;;;;;;17.50;8.50;;;;;;;8.06;53.91;94389.34;5025351;28;20105;-78
2023/04/03 05:49:17;;;;;;;21.08;9.50;;;;;;;8.10;53.69;94381.81;5026440;28;20455;-78
2023/04/03 05:51:44;;;;;;;19.90;9.60;;;;;;;8.15;53.33;94380.50;5025207;28;20107;-81
2023/04/03 05:54:12;;;;;;;17.17;9.68;;;;;;;8.22;53.61;94380.31;5025138;28;20035;-81
2023/04/03 05:56:38;;;;;;;24.52;12.30;;;;;;;8.27;53.50;94376.25;5007512;28;20046;-80
2023/04/03 05:59:03;;;;;;;22.98;13.55;;;;;;;8.32;53.29;94378.47;5025230;28;20026;-77
2023/04/03 06:01:29;;;;;;;24.58;12.80;;;;;;;8.38;53.18;94377.50;5024719;28;20511;-80
2023/04/03 06:03:54;;;;;;;22.08;12.10;;;;;;;8.38;53.13;94372.03;5025023;28;20018;-82
2023/04/03 06:06:21;;;;;;;23.85;11.77;;;;;;;8.51;52.94;94372.03;5026243;28;20382;-81
2023/04/03 06:08:47;;;;;;;19.40;10.18;;;;;;;8.55;52.93;94371.94;5023604;28;20029;-82
2023/04/03 06:11:13;;;;;;;18.60;10.60;;;;;;;8.61;52.69;94365.50;5026172;28;20100;-82
2023/04/03 06:13:39;;;;;;;18.42;10.10;;;;;;;8.68;52.51;94357.03;5023461;28;20030;-81
2023/04/03 06:16:05;;;;;;;22.75;10.57;;;;;;;8.73;52.77;94350.25;5025642;28;20025;-81
2023/04/03 06:18:30;;;;;;;14.73;8.63;;;;;;;8.80;52.51;94349.25;5023806;28;20025;-82
2023/04/03 06:20:56;;;;;;;14.00;8.85;;;;;;;8.87;52.22;94338.06;5024545;28;20503;-82
2023/04/03 06:23:21;;;;;;;14.77;8.98;;;;;;;8.88;52.33;94339.59;5025607;28;20079;-83
2023/04/03 06:25:47;;;;;;;16.27;8.50;;;;;;;8.90;52.35;94345.41;5023120;28;20026;-84
2023/04/03 06:28:12;;;;;;;14.48;8.88;;;;;;;8.98;52.17;94352.19;5026049;28;20093;-81
2023/04/03 06:30:37;;;;;;;17.80;8.90;;;;;;;9.08;51.94;94355.81;5026008;28;20025;-81
2023/04/03 06:33:03;;;;;;;16.33;8.52;;;;;;;9.19;51.67;94353.50;5037728;28;20106;-81
2023/04/03 06:35:30;;;;;;;19.90;8.60;;;;;;;9.25;51.35;94348.97;5023958;28;20045;-82
2023/04/03 06:37:55;;;;;;;16.85;8.60;;;;;;;9.32;51.28;94360.47;5024831;28;20552;-82
2023/04/03 06:40:23;;;;;;;17.38;9.57;;;;;;;9.39;51.29;94358.72;5025803;28;20124;-82
2023/04/03 06:42:49;;;;;;;19.90;10.73;;;;;;;9.49;50.93;94368.56;5023115;28;20018;-83
2023/04/03 06:45:15;;;;;;;18.60;10.45;;;;;;;9.54;50.75;94374.25;5025945;28;20049;-91
2023/04/03 06:47:40;;;;;;;18.13;9.65;;;;;;;9.59;50.33;94381.16;5021903;28;20507;-82
2023/04/03 06:50:08;;;;;;;17.15;9.95;;;;;;;9.67;50.53;94370.69;5024360;28;20569;-80
2023/04/03 06:52:34;;;;;;;18.98;10.65;;;;;;;9.76;50.41;94365.28;5024022;28;20029;-81
2023/04/03 06:55:00;;;;;;;17.13;10.05;;;;;;;9.80;50.42;94371.41;5023665;28;20029;-81
2023/04/03 06:57:26;;;;;;;17.98;9.98;;;;;;;9.86;50.24;94369.63;5024845;28;20086;-80
2023/04/03 06:59:51;;;;;;;14.77;9.55;;;;;;;9.92;50.19;94369.81;5022521;28;20107;-81
2023/04/03 07:02:17;;;;;;;13.32;8.60;;;;;;;10.00;49.90;94371.88;5025552;28;20049;-81
2023/04/03 07:04:42;;;;;;;14.57;9.48;;;;;;;10.01;50.01;94370.66;5023936;28;20048;-80
2023/04/03 07:07:08;;;;;;;25.35;11.23;;;;;;;10.06;49.77;94383.06;5024110;28;20053;-87
2023/04/03 07:09:33;;;;;;;14.55;10.05;;;;;;;10.18;49.60;94375.97;5025629;28;20026;-83
2023/04/03 07:11:59;;;;;;;14.25;9.85;;;;;;;10.26;49.45;94380.78;5016081;28;20018;-85
2023/04/03 07:14:24;;;;;;;19.83;10.35;;;;;;;10.33;49.25;94380.53;5041500;28;20041;-82
2023/04/03 07:16:50;;;;;;;13.10;8.80;;;;;;;10.43;49.17;94359.34;5027033;28;20026;-81
2023/04/03 07:19:15;;;;;;;15.13;8.57;;;;;;;10.53;49.07;94349.19;5025716;28;20108;-83
2023/04/03 07:21:41;;;;;;;15.50;8.82;;;;;;;10.63;49.04;94364.50;5022390;28;20025;-85
2023/04/03 07:24:07;;;;;;;16.52;9.13;;;;;;;10.61;49.12;94355.97;5023950;28;20029;-82
2023/04/03 07:26:32;;;;;;;14.27;8.50;;;;;;;10.69;49.13;94348.19;5034219;28;20106;-84
2023/04/03 07:28:58;;;;;;;12.18;7.60;;;;;;;10.86;48.65;94355.75;5029514;28;20036;-83
2023/04/03 07:31:24;;;;;;;8.75;6.70;;;;;;;10.97;48.65;94358.09;5023471;28;20034;-84
2023/04/03 07:33:50;;;;;;;10.15;5.63;;;;;;;11.07;48.38;94350.66;5023977;28;20097;-86
2023/04/03 07:36:18;;;;;;;9.02;6.22;;;;;;;11.23;48.13;94341.34;5024977;28;20032;-84
2023/04/03 07:38:44;;;;;;;8.35;5.72;;;;;;;11.35;47.94;94343.97;5024010;28;20869;-82
2023/04/03 07:41:18;;;;;;;8.70;7.22;;;;;;;11.47;47.70;94336.81;5027613;28;20026;-89
2023/04/03 07:43:44;;;;;;;8.23;5.38;;;;;;;11.56;47.30;94336.03;5022660;28;20101;-85
2023/04/03 07:46:10;;;;;;;6.63;3.92;;;;;;;11.66;46.80;94327.34;5023967;28;20064;-86
2023/04/03 07:48:36;;;;;;;9.75;4.70;;;;;;;11.82;46.56;94326.31;5023430;28;20030;-86
2023/04/03 07:51:03;;;;;;;8.77;4.65;;;;;;;11.75;46.62;94325.81;5024813;28;20025;-83
2023/04/03 07:53:29;;;;;;;10.40;5.15;;;;;;;11.89;46.68;94316.97;5024736;28;20039;-87
2023/04/03 07:55:56;;;;;;;11.32;6.53;;;;;;;11.96;46.24;94322.91;5022577;28;20101;-83
2023/04/03 07:58:22;;;;;;;11.82;7.05;;;;;;;12.07;45.98;94329.94;5025108;28;20571;-88
2023/04/03 08:00:47;;;;;;;16.88;6.95;;;;;;;12.20;45.71;94333.28;5026856;28;20177;-83
2023/04/03 08:03:13;;;;;;;8.02;6.60;;;;;;;12.28;45.58;94319.97;5027860;28;20103;-84
2023/04/03 08:05:44;;;;;;;9.90;6.28;;;;;;;12.37;45.05;94311.66;5027519;28;20550;-89
2023/04/03 08:08:11;;;;;;;9.20;6.93;;;;;;;12.43;45.10;94309.81;5029388;28;20029;-88
2023/04/03 08:10:37;;;;;;;13.20;8.00;;;;;;;12.47;45.34;94311.19;5026694;28;20025;-86
2023/04/03 08:13:03;;;;;;;13.43;9.48;;;;;;;12.56;45.20;94307.66;5026887;28;20095;-87
2023/04/03 08:15:30;;;;;;;14.13;8.00;;;;;;;12.63;45.35;94312.06;5028913;28;20048;-85
2023/04/03 08:17:55;;;;;;;12.57;7.38;;;;;;;12.66;44.84;94306.38;5027054;28;20021;-83
2023/04/03 08:20:21;;;;;;;11.98;7.43;;;;;;;12.72;44.89;94309.25;5032413;28;20052;-81
2023/04/03 08:22:46;;;;;;;13.50;8.15;;;;;;;12.81;44.84;94302.94;5035690;28;20060;-87
2023/04/03 08:25:12;;;;;;;11.27;8.25;;;;;;;12.91;44.37;94305.22;5028568;28;20025;-85
2023/04/03 08:27:37;;;;;;;13.88;9.15;;;;;;;13.06;43.90;94302.50;5027230;28;20453;-86
2023/04/03 08:30:04;;;;;;;14.93;8.82;;;;;;;13.18;43.78;94306.28;5028040;28;20104;-87
2023/04/03 08:32:29;;;;;;;12.40;8.95;;;;;;;13.19;43.44;94303.06;5028534;28;20017;-89
2023/04/03 08:34:55;;;;;;;13.27;9.15;;;;;;;13.24;43.06;94307.19;5029224;28;20100;-87
2023/04/03 08:37:20;;;;;;;14.10;9.73;;;;;;;13.27;42.81;94292.47;5030543;28;20057;-88
2023/04/03 08:39:47;;;;;;;16.38;9.23;;;;;;;13.32;42.96;94300.09;5027465;28;20068;-91
2023/04/03 08:42:43;;;;;;;14.65;8.10;;;;;;;13.40;42.76;94290.22;5028298;28;20555;-85
2023/04/03 08:45:25;;;;;;;10.55;7.80;;;;;;;13.27;42.43;94286.94;5027046;28;20075;-83
2023/04/03 08:48:17;;;;;;;11.00;7.57;;;;;;;13.32;42.36;94283.53;5025336;28;20495;-82
2023/04/03 08:50:48;;;;;;;11.25;7.28;;;;;;;13.38;42.25;94281.66;5026195;28;20030;-81
2023/04/03 08:53:16;;;;;;;13.60;7.65;;;;;;;13.47;42.21;94278.06;5024378;28;20072;-84
2023/04/03 08:55:49;;;;;;;12.20;7.80;;;;;;;13.56;42.04;94286.28;5026144;28;20403;-83
2023/04/03 08:58:23;;;;;;;9.40;7.07;;;;;;;13.63;41.96;94279.63;5028107;28;20049;-88
2023/04/03 09:00:55;;;;;;;13.07;8.50;;;;;;;13.68;41.82;94279.72;5026672;28;20483;-88
2023/04/03 09:03:21;;;;;;;10.10;7.07;;;;;;;13.75;41.73;94273.84;5027952;28;20095;-88
2023/04/03 09:05:53;;;;;;;12.80;7.43;;;;;;;13.86;41.56;94278.81;5025292;28;20128;-86
2023/04/03 09:08:22;;;;;;;11.88;6.60;;;;;;;13.88;41.30;94267.28;5026241;28;20349;-88
2023/04/03 09:10:50;;;;;;;10.48;7.30;;;;;;;13.86;41.46;94262.25;5024142;28;20070;-77
2023/04/03 09:13:32;;;;;;;17.83;8.85;;;;;;;14.00;41.13;94257.97;5025419;28;20087;-79
2023/04/03 09:15:58;;;;;;;15.30;8.57;;;;;;;14.13;41.14;94258.47;5032277;28;20033;-80
2023/04/03 09:18:31;;;;;;;12.95;9.32;;;;;;;14.21;40.93;94261.59;5029803;28;20117;-76
2023/04/03 09:21:40;;;;;;;13.32;8.27;;;;;;;14.27;41.04;94252.16;5025630;28;20475;-78
2023/04/03 09:24:07;;;;;;;13.05;8.85;;;;;;;14.34;40.50;94239.97;4983864;28;20038;-79
2023/04/03 09:26:51;;;;;;;13.35;9.90;;;;;;;14.43;40.81;94250.16;4968226;28;20125;-79
2023/04/03 09:29:20;;;;;;;;;;;;;;;14.46;41.00;94246.44;4985152;28;20042;-82
2023/04/03 09:31:48;;;;;;;20.13;10.90;;;;;;;14.48;40.93;94230.91;4967408;28;19918;-84
2023/04/03 09:34:26;;;;;;;15.20;9.73;;;;;;;14.57;40.59;94233.56;4968852;28;20038;-85
2023/04/03 09:36:54;;;;;;;16.02;10.00;;;;;;;14.60;40.43;94229.06;4983844;28;20053;-82
2023/04/03 09:39:24;;;;;;;15.85;10.27;;;;;;;14.69;40.45;94234.50;4967832;28;20528;-83
2023/04/03 09:41:59;;;;;;;25.60;16.20;;;;;;;14.82;40.08;94236.94;4984737;28;20038;-83
2023/04/03 09:44:33;;;;;;;23.08;15.77;;;;;;;14.92;39.81;94232.06;4983235;28;20219;-84
2023/04/03 09:47:00;;;;;;;15.45;9.88;;;;;;;15.03;39.58;94224.66;4969083;28;20042;-84
2023/04/03 09:49:28;;;;;;;16.10;9.30;;;;;;;15.05;39.47;94221.41;4982838;28;20082;-83
2023/04/03 09:51:53;;;;;;;13.30;9.82;;;;;;;15.20;39.43;94213.06;4984539;28;20047;-79
2023/04/03 09:54:40;;;;;;;17.60;9.57;;;;;;;15.26;39.10;94213.88;4967745;28;20539;-79
2023/04/03 09:57:13;;;;;;;13.10;9.15;;;;;;;15.28;38.97;94209.38;4988984;28;20538;-80
2023/04/03 09:59:58;;;;;;;24.17;10.50;;;;;;;15.39;38.81;94209.50;5024878;28;20120;-91
2023/04/03 10:02:29;;;;;;;17.00;10.05;;;;;;;15.40;38.80;94207.50;5023680;28;20049;-88
2023/04/03 10:04:55;;;;;;;19.88;10.13;;;;;;;15.55;38.76;94199.88;5025110;28;20033;-77
2023/04/03 10:07:33;;;;;;;15.93;10.38;;;;;;;15.55;38.81;94204.66;5025229;28;20025;-78
2023/04/03 10:10:03;;;;;;;18.20;10.10;;;;;;;15.59;38.70;94197.63;5025456;28;20025;-78
2023/04/03 10:12:29;;;;;;;16.08;10.13;;;;;;;15.64;38.81;94194.19;5032195;28;20025;-79
2023/04/03 10:14:56;;;;;;;15.52;9.70;;;;;;;15.56;38.71;94197.88;5025236;28;20033;-78
2023/04/03 10:17:24;;;;;;;14.20;8.27;;;;;;;15.43;37.81;94201.00;5026110;28;20443;-78
2023/04/03 10:19:56;;;;;;;11.88;7.90;;;;;;;15.25;38.14;94190.94;5024113;28;20026;-78
2023/04/03 10:22:30;;;;;;;9.63;7.13;;;;;;;15.24;38.33;94192.19;5023253;28;20437;-76
2023/04/03 10:25:14;;;;;;;9.75;7.60;;;;;;;15.28;38.51;94195.53;5025072;28;20029;-75
2023/04/03 10:27:59;;;;;;;12.02;7.90;;;;;;;15.25;38.61;94184.66;5022610;28;20091;-75
2023/04/03 10:31:05;;;;;;;14.35;7.18;;;;;;;15.25;38.70;94182.66;5023676;28;20060;-76
2023/04/03 10:33:45;;;;;;;8.77;6.85;;;;;;;15.29;38.64;94174.13;5024479;28;20112;-76
2023/04/03 10:36:35;;;;;;;9.32;6.43;;;;;;;15.17;38.41;94169.72;5024676;28;20025;-77
2023/04/03 10:39:09;;;;;;;11.10;7.60;;;;;;;14.93;38.47;94165.16;5025693;28;20037;-75
2023/04/03 10:41:56;;;;;;;13.25;7.40;;;;;;;14.98;38.65;94161.69;5022383;28;20042;-76
2023/04/03 10:44:31;;;;;;;10.25;7.18;;;;;;;14.95;38.63;94159.88;5024762;28;20037;-76
2023/04/03 10:47:01;;;;;;;8.85;6.68;;;;;;;14.89;38.62;94156.28;5025018;28;20087;-75
2023/04/03 10:50:04;;;;;;;12.43;7.47;;;;;;;14.99;38.83;94154.91;5023509;28;20032;-75
2023/04/03 10:52:40;;;;;;;9.70;5.68;;;;;;;14.96;38.94;94153.09;5012540;28;20476;-77
2023/04/03 10:55:35;;;;;;;7.05;4.50;;;;;;;15.04;38.42;94153.47;5023106;28;20029;-77
2023/04/03 10:58:01;;;;;;;8.60;4.80;;;;;;;15.01;38.49;94154.41;5014175;28;20045;-76
2023/04/03 11:00:36;;;;;;;7.10;4.82;;;;;;;14.90;38.32;94151.50;5023553;28;20025;-76
2023/04/03 11:03:21;;;;;;;5.63;4.40;;;;;;;14.57;39.08;94149.84;5022467;28;20029;-76
2023/04/03 11:05:50;;;;;;;7.97;4.18;;;;;;;14.55;39.24;94147.53;5026947;28;20034;-76
2023/04/03 11:08:16;;;;;;;6.25;4.35;;;;;;;14.52;39.59;94153.28;5028427;28;20036;-76
2023/04/03 11:10:46;;;;;;;8.02;4.10;;;;;;;14.21;39.86;94159.31;5023800;28;20037;-76
2023/04/03 11:13:16;;;;;;;7.53;3.42;;;;;;;13.86;41.08;94162.78;5023805;28;20029;-77
2023/04/03 11:15:44;;;;;;;5.22;3.92;;;;;;;13.60;42.40;94161.84;5022338;28;20036;-77
2023/04/03 11:18:17;;;;;;;5.90;3.45;;;;;;;13.65;42.60;94167.47;5024988;28;20465;-75
2023/04/03 11:20:50;;;;;;;5.35;4.03;;;;;;;13.49;42.79;94170.69;5022524;28;20026;-76
2023/04/03 11:23:25;;;;;;;5.50;4.07;;;;;;;13.58;43.37;94170.56;5023035;28;20065;-75
2023/04/03 11:25:53;;;;;;;7.30;3.90;;;;;;;13.39;44.29;94161.72;5024703;28;20018;-76
2023/04/03 11:28:18;;;;;;;6.72;3.65;;;;;;;12.94;45.20;94169.09;5023635;28;20029;-77
2023/04/03 11:30:50;;;;;;;6.50;4.03;;;;;;;12.96;45.68;94171.38;5024837;28;20205;-77
2023/04/03 11:33:25;;;;;;;6.13;3.83;;;;;;;12.92;45.81;94173.56;5025524;28;20035;-76
2023/04/03 11:36:30;;;;;;;6.28;4.20;;;;;;;12.77;47.16;94168.72;5027296;28;20033;-76
2023/04/03 11:38:59;;;;;;;6.88;3.28;;;;;;;12.75;47.97;94164.94;5004713;28;20123;-75